createdAt,value
2018-01-04T00:01:03.573Z,49.82
2018-01-04T00:03:29.578Z,49.44
2018-01-04T00:05:55.549Z,49.76
2018-01-04T00:08:21.504Z,49.54
2018-01-04T00:10:47.453Z,50.12
2018-01-04T00:13:13.413Z,49.77
2018-01-04T00:15:39.343Z,50.35
2018-01-04T00:18:05.293Z,50.09
2018-01-04T00:20:31.382Z,49.62
2018-01-04T00:22:57.352Z,50.35
2018-01-04T00:25:23.310Z,49.79
2018-01-04T00:27:49.361Z,50.17
2018-01-04T00:30:15.317Z,50.12
2018-01-04T00:32:41.261Z,50.15
2018-01-04T00:35:07.214Z,49.87
2018-01-04T00:37:33.162Z,50.27
2018-01-04T00:39:59.101Z,50.45
2018-01-04T00:42:25.076Z,49.86
2018-01-04T00:44:51.034Z,49.83
2018-01-04T00:47:16.989Z,50.14
2018-01-04T00:49:42.922Z,49.91
2018-01-04T00:52:08.889Z,49.77
2018-01-04T00:54:34.853Z,50.01
2018-01-04T00:57:00.794Z,50.31
2018-01-04T00:59:26.755Z,49.59
2018-01-04T01:01:52.710Z,49.75
2018-01-04T01:04:18.744Z,50.29
2018-01-04T01:06:44.689Z,50.26
2018-01-04T01:09:10.654Z,49.78
2018-01-04T01:11:36.618Z,50.10
2018-01-04T01:14:02.577Z,50.46
2018-01-04T01:16:28.521Z,50.53
2018-01-04T01:18:54.459Z,50.12
2018-01-04T01:21:20.401Z,50.35
2018-01-04T01:23:46.354Z,49.78
2018-01-04T01:26:12.293Z,50.20
2018-01-04T01:28:38.241Z,50.31
2018-01-04T01:31:04.202Z,50.14
2018-01-04T01:33:30.170Z,50.10
2018-01-04T01:35:56.152Z,50.15
2018-01-04T01:38:22.111Z,49.86
2018-01-04T01:40:48.065Z,50.01
2018-01-04T01:43:14.061Z,49.53
2018-01-04T01:45:39.997Z,49.75
2018-01-04T01:48:05.936Z,49.64
2018-01-04T01:50:32.010Z,50.56
2018-01-04T01:52:57.964Z,49.87
2018-01-04T01:55:23.898Z,50.54
2018-01-04T01:57:49.885Z,50.11
2018-01-04T02:00:15.905Z,50.17
2018-01-04T02:02:41.930Z,50.69
2018-01-04T02:05:07.888Z,50.62
2018-01-04T02:07:34.166Z,50.66
2018-01-04T02:10:00.102Z,50.63
2018-01-04T02:12:26.045Z,50.69
2018-01-04T02:14:51.988Z,50.75
2018-01-04T02:17:18.393Z,50.77
2018-01-04T02:19:44.342Z,50.57
2018-01-04T02:22:10.315Z,49.88
2018-01-04T02:24:36.261Z,49.47
2018-01-04T02:27:02.209Z,49.37
2018-01-04T02:29:28.165Z,49.76
2018-01-04T02:31:54.097Z,49.36
2018-01-04T02:34:20.106Z,49.84
2018-01-04T02:36:46.058Z,49.68
2018-01-04T02:39:11.994Z,49.67
2018-01-04T02:41:38.026Z,50.06
2018-01-04T02:44:03.985Z,49.79
2018-01-04T02:46:29.929Z,50.56
2018-01-04T02:48:55.890Z,49.54
2018-01-04T02:51:21.850Z,50.20
2018-01-04T02:53:47.814Z,50.45
2018-01-04T02:56:13.769Z,50.33
2018-01-04T02:58:39.733Z,50.79
2018-01-04T03:01:06.714Z,50.29
2018-01-04T03:03:32.649Z,50.60
2018-01-04T03:05:58.589Z,50.64
2018-01-04T03:08:24.536Z,49.99
2018-01-04T03:10:50.496Z,49.61
2018-01-04T03:13:16.438Z,50.06
2018-01-04T03:15:42.425Z,50.04
2018-01-04T03:18:08.469Z,49.77
2018-01-04T03:20:34.425Z,50.09
2018-01-04T03:23:00.378Z,49.90
2018-01-04T03:25:26.357Z,50.43
2018-01-04T03:27:52.329Z,49.99
2018-01-04T03:30:18.317Z,49.82
2018-01-04T03:32:44.255Z,50.31
2018-01-04T03:35:10.198Z,50.14
2018-01-04T03:37:36.187Z,50.41
2018-01-04T03:40:02.141Z,49.59
2018-01-04T03:42:28.077Z,50.19
2018-01-04T03:44:54.021Z,50.62
2018-01-04T03:47:19.980Z,50.66
2018-01-04T03:49:45.921Z,50.50
2018-01-04T03:52:11.856Z,49.97
2018-01-04T03:54:37.802Z,50.19
2018-01-04T03:57:03.754Z,49.40
2018-01-04T03:59:29.714Z,49.07
2018-01-04T04:01:55.663Z,48.76
2018-01-04T04:04:21.666Z,48.64
2018-01-04T04:06:47.678Z,48.73
2018-01-04T04:09:13.625Z,48.47
2018-01-04T04:11:39.565Z,48.62
2018-01-04T04:14:05.537Z,48.48
2018-01-04T04:16:31.474Z,48.87
2018-01-04T04:18:57.421Z,48.78
2018-01-04T04:21:23.384Z,48.92
2018-01-04T04:23:49.321Z,48.72
2018-01-04T04:26:15.287Z,48.82
2018-01-04T04:28:41.229Z,48.54
2018-01-04T04:31:07.189Z,48.54
2018-01-04T04:33:33.145Z,48.51
2018-01-04T04:35:59.086Z,48.55
2018-01-04T04:38:25.027Z,48.49
2018-01-04T04:40:50.969Z,48.70
2018-01-04T04:43:16.913Z,48.64
2018-01-04T04:45:42.857Z,48.46
2018-01-04T04:48:08.823Z,48.54
2018-01-04T04:50:34.777Z,48.50
2018-01-04T04:53:00.718Z,48.25
2018-01-04T04:55:26.666Z,48.28
2018-01-04T04:57:52.681Z,48.36
2018-01-04T05:00:18.622Z,48.44
2018-01-04T05:02:44.565Z,48.59
2018-01-04T05:05:10.522Z,48.71
2018-01-04T05:07:36.470Z,48.97
2018-01-04T05:10:02.437Z,48.94
2018-01-04T05:12:28.375Z,48.80
2018-01-04T05:14:54.373Z,48.72
2018-01-04T05:17:20.329Z,48.86
2018-01-04T05:19:46.330Z,48.66
2018-01-04T05:22:12.292Z,48.75
2018-01-04T05:24:38.225Z,48.84
2018-01-04T05:27:04.167Z,48.75
2018-01-04T05:29:31.178Z,48.85
2018-01-04T05:31:57.137Z,48.99
2018-01-04T05:34:23.089Z,48.98
2018-01-04T05:36:49.073Z,49.46
2018-01-04T05:39:15.013Z,49.15
2018-01-04T05:41:40.961Z,49.04
2018-01-04T05:44:06.921Z,49.19
2018-01-04T05:46:32.872Z,49.27
2018-01-04T05:48:58.838Z,49.09
2018-01-04T05:51:24.782Z,49.17
2018-01-04T05:53:50.732Z,49.24
2018-01-04T05:56:16.666Z,49.17
2018-01-04T05:58:42.697Z,49.28
2018-01-04T06:01:08.645Z,49.32
2018-01-04T06:03:34.588Z,49.26
2018-01-04T06:06:00.539Z,49.42
2018-01-04T06:08:26.485Z,49.67
2018-01-04T06:10:52.438Z,49.68
2018-01-04T06:13:18.398Z,49.62
2018-01-04T06:15:44.366Z,49.68
2018-01-04T06:18:10.349Z,49.20
2018-01-04T06:20:36.309Z,49.79
2018-01-04T06:23:02.257Z,49.56
2018-01-04T06:25:28.201Z,49.20
2018-01-04T06:27:54.210Z,49.22
2018-01-04T06:30:20.153Z,49.27
2018-01-04T06:32:46.128Z,49.46
2018-01-04T06:35:12.095Z,49.37
2018-01-04T06:37:38.062Z,49.38
2018-01-04T06:40:04.191Z,49.42
2018-01-04T06:42:30.158Z,49.69
2018-01-04T06:44:56.108Z,49.66
2018-01-04T06:47:22.066Z,49.29
2018-01-04T06:49:47.997Z,49.73
2018-01-04T06:52:13.937Z,49.56
2018-01-04T06:54:39.906Z,49.48
2018-01-04T06:57:05.873Z,49.69
2018-01-04T06:59:31.825Z,49.65
2018-01-04T07:01:57.805Z,49.68
2018-01-04T07:04:23.740Z,49.52
2018-01-04T07:06:49.709Z,49.38
2018-01-04T07:09:15.673Z,49.37
2018-01-04T07:11:41.635Z,49.25
2018-01-04T07:14:07.594Z,49.09
2018-01-04T07:16:33.537Z,49.09
2018-01-04T07:18:59.657Z,49.22
2018-01-04T07:21:25.613Z,49.54
2018-01-04T07:23:51.585Z,49.49
2018-01-04T07:26:17.589Z,49.25
2018-01-04T07:28:43.554Z,49.41
2018-01-04T07:31:09.537Z,49.79
2018-01-04T07:33:35.481Z,49.67
2018-01-04T07:36:01.434Z,49.76
2018-01-04T07:38:27.369Z,49.51
2018-01-04T07:40:53.306Z,49.60
2018-01-04T07:43:19.245Z,49.46
2018-01-04T07:45:45.213Z,49.36
2018-01-04T07:48:11.182Z,49.70
2018-01-04T07:50:37.137Z,49.32
2018-01-04T07:53:03.114Z,49.71
2018-01-04T07:55:29.046Z,49.59
2018-01-04T07:57:54.986Z,49.56
2018-01-04T08:00:20.930Z,49.79
2018-01-04T08:02:46.873Z,49.53
2018-01-04T08:05:12.819Z,49.55
2018-01-04T08:07:38.767Z,49.27
2018-01-04T08:10:04.705Z,49.31
2018-01-04T08:12:30.642Z,49.50
2018-01-04T08:14:56.625Z,49.38
2018-01-04T08:17:22.657Z,49.33
2018-01-04T08:19:48.687Z,49.85
2018-01-04T08:22:14.629Z,49.57
2018-01-04T08:24:40.582Z,49.45
2018-01-04T08:27:06.524Z,49.46
2018-01-04T08:29:32.470Z,49.48
2018-01-04T08:31:58.415Z,49.44
2018-01-04T08:34:24.393Z,49.39
2018-01-04T08:36:50.328Z,49.35
2018-01-04T08:39:16.298Z,49.41
2018-01-04T08:41:42.237Z,50.62
2018-01-04T08:44:08.173Z,49.93
2018-01-04T08:46:34.118Z,49.71
2018-01-04T08:49:00.142Z,49.75
2018-01-04T08:51:26.105Z,49.66
2018-01-04T08:53:52.033Z,49.84
2018-01-04T08:56:17.997Z,49.46
2018-01-04T08:58:43.984Z,49.58
2018-01-04T09:01:09.953Z,49.72
2018-01-04T09:03:35.914Z,49.28
2018-01-04T09:06:01.965Z,49.35
2018-01-04T09:08:27.909Z,49.69
2018-01-04T09:10:53.857Z,49.59
2018-01-04T09:13:19.810Z,49.67
2018-01-04T09:15:45.756Z,49.54
2018-01-04T09:18:11.709Z,49.69
2018-01-04T09:20:37.661Z,49.57
2018-01-04T09:23:03.602Z,49.70
2018-01-04T09:25:29.589Z,49.74
2018-01-04T09:27:55.526Z,49.67
2018-01-04T09:30:21.476Z,49.49
2018-01-04T09:32:47.426Z,49.76
2018-01-04T09:35:13.370Z,49.90
2018-01-04T09:37:39.345Z,49.65
2018-01-04T09:40:05.342Z,49.34
2018-01-04T09:42:31.289Z,49.39
2018-01-04T09:44:57.244Z,49.07
2018-01-04T09:47:23.258Z,49.36
2018-01-04T09:49:49.237Z,49.50
2018-01-04T09:52:15.245Z,49.57
2018-01-04T09:54:41.258Z,49.84
2018-01-04T09:57:07.205Z,49.70
2018-01-04T09:59:33.239Z,49.93
2018-01-04T10:01:59.206Z,49.84
2018-01-04T10:04:25.154Z,49.93
2018-01-04T10:06:51.090Z,49.91
2018-01-04T10:09:17.043Z,50.00
2018-01-04T10:11:43.024Z,50.04
2018-01-04T10:14:08.961Z,49.70
2018-01-04T10:16:34.933Z,49.82
2018-01-04T10:19:00.881Z,49.76
2018-01-04T10:21:26.829Z,49.65
2018-01-04T10:23:52.795Z,49.58
2018-01-04T10:26:18.765Z,49.61
2018-01-04T10:28:44.732Z,49.44
2018-01-04T10:31:10.694Z,49.50
2018-01-04T10:33:36.647Z,49.63
2018-01-04T10:36:02.589Z,49.58
2018-01-04T10:38:28.569Z,49.55
2018-01-04T10:40:54.482Z,49.60
2018-01-04T10:43:20.461Z,49.68
2018-01-04T10:45:46.418Z,49.76
2018-01-04T10:48:12.386Z,49.76
2018-01-04T10:50:38.357Z,49.86
2018-01-04T10:53:04.374Z,49.90
2018-01-04T10:55:30.341Z,49.83
2018-01-04T10:57:56.304Z,49.86
2018-01-04T11:00:22.278Z,50.20
2018-01-04T11:02:48.214Z,49.99
2018-01-04T11:05:14.231Z,49.77
2018-01-04T11:07:40.142Z,50.06
2018-01-04T11:10:06.137Z,50.07
2018-01-04T11:12:32.123Z,50.28
2018-01-04T11:14:58.230Z,49.97
2018-01-04T11:17:24.226Z,50.10
2018-01-04T11:19:50.135Z,50.44
2018-01-04T11:22:16.311Z,49.88
2018-01-04T11:24:42.249Z,50.97
2018-01-04T11:27:08.199Z,50.04
2018-01-04T11:29:34.234Z,50.02
2018-01-04T11:32:00.184Z,49.79
2018-01-04T11:34:26.142Z,49.95
2018-01-04T11:36:52.117Z,50.22
2018-01-04T11:39:18.065Z,50.54
2018-01-04T11:41:44.007Z,50.48
2018-01-04T11:44:09.966Z,50.20
2018-01-04T11:46:35.898Z,50.23
2018-01-04T11:49:01.841Z,50.36
2018-01-04T11:51:27.797Z,50.35
2018-01-04T11:53:53.745Z,50.37
2018-01-04T11:56:19.691Z,50.32
2018-01-04T11:58:45.691Z,50.42
2018-01-04T12:01:11.693Z,50.13
2018-01-04T12:03:37.651Z,49.98
2018-01-04T12:06:03.600Z,50.92
2018-01-04T12:08:29.636Z,50.49
2018-01-04T12:10:55.557Z,50.30
2018-01-04T12:13:21.497Z,50.42
2018-01-04T12:15:47.457Z,50.54
2018-01-04T12:18:13.382Z,50.54
2018-01-04T12:20:39.344Z,50.35
2018-01-04T12:23:05.281Z,50.53
2018-01-04T12:25:31.257Z,50.57
2018-01-04T12:27:57.202Z,50.64
2018-01-04T12:30:23.160Z,50.50
2018-01-04T12:32:49.109Z,50.69
2018-01-04T12:35:15.061Z,50.54
2018-01-04T12:37:41.011Z,50.60
2018-01-04T12:40:06.968Z,50.67
2018-01-04T12:42:32.928Z,50.69
2018-01-04T12:44:58.869Z,50.56
2018-01-04T12:47:24.817Z,50.48
2018-01-04T12:49:50.766Z,50.59
2018-01-04T12:52:16.716Z,50.54
2018-01-04T12:54:42.701Z,50.14
2018-01-04T12:57:08.649Z,50.32
2018-01-04T12:59:34.596Z,50.41
2018-01-04T13:02:00.552Z,50.25
2018-01-04T13:04:26.497Z,50.33
2018-01-04T13:06:52.530Z,50.22
2018-01-04T13:09:18.485Z,50.61
2018-01-04T13:11:44.465Z,50.25
2018-01-04T13:14:10.409Z,50.66
2018-01-04T13:16:36.461Z,50.51
2018-01-04T13:19:02.397Z,50.50
2018-01-04T13:21:28.406Z,50.74
2018-01-04T13:23:54.530Z,50.96
2018-01-04T13:26:20.430Z,50.82
2018-01-04T13:28:46.503Z,50.59
2018-01-04T13:31:12.453Z,50.69
2018-01-04T13:33:38.449Z,50.57
2018-01-04T13:36:04.391Z,50.63
2018-01-04T13:38:30.340Z,50.50
2018-01-04T13:40:56.318Z,50.25
2018-01-04T13:43:22.221Z,50.40
2018-01-04T13:45:48.194Z,50.83
2018-01-04T13:48:14.142Z,50.33
2018-01-04T13:50:40.113Z,50.19
2018-01-04T13:53:06.237Z,50.32
2018-01-04T13:55:32.198Z,50.29
2018-01-04T13:57:58.145Z,50.40
2018-01-04T14:00:24.145Z,50.42
2018-01-04T14:02:50.167Z,50.46
2018-01-04T14:05:16.110Z,50.48
2018-01-04T14:07:42.101Z,50.48
2018-01-04T14:10:08.058Z,50.33
2018-01-04T14:12:33.998Z,50.68
2018-01-04T14:14:59.966Z,50.88
2018-01-04T14:17:25.926Z,50.97
2018-01-04T14:19:51.884Z,50.44
2018-01-04T14:22:17.918Z,50.12
2018-01-04T14:24:43.927Z,50.14
2018-01-04T14:27:09.960Z,50.12
2018-01-04T14:29:35.998Z,50.09
2018-01-04T14:32:02.035Z,49.88
2018-01-04T14:34:27.994Z,50.50
2018-01-04T14:36:53.934Z,50.69
2018-01-04T14:39:19.890Z,50.83
2018-01-04T14:41:45.951Z,50.47
2018-01-04T14:44:11.890Z,50.70
2018-01-04T14:46:37.836Z,51.08
2018-01-04T14:49:03.801Z,50.83
2018-01-04T14:51:29.705Z,51.36
2018-01-04T14:53:55.758Z,50.83
2018-01-04T14:56:21.724Z,50.64
2018-01-04T14:58:47.667Z,50.68
2018-01-04T15:01:13.609Z,50.50
2018-01-04T15:03:39.627Z,50.34
2018-01-04T15:06:05.587Z,50.19
2018-01-04T15:08:31.529Z,50.07
2018-01-04T15:10:57.480Z,50.18
2018-01-04T15:13:23.415Z,50.20
2018-01-04T15:15:49.353Z,50.07
2018-01-04T15:18:15.358Z,49.98
2018-01-04T15:20:41.319Z,50.10
2018-01-04T15:23:07.272Z,50.00
2018-01-04T15:25:33.208Z,50.04
2018-01-04T15:27:59.253Z,50.02
2018-01-04T15:30:25.200Z,50.25
2018-01-04T15:32:51.195Z,50.22
2018-01-04T15:35:17.132Z,50.24
2018-01-04T15:37:43.077Z,50.38
2018-01-04T15:40:09.022Z,50.47
2018-01-04T15:42:34.961Z,50.32
2018-01-04T15:45:00.902Z,50.55
2018-01-04T15:47:26.845Z,50.66
2018-01-04T15:49:52.798Z,50.71
2018-01-04T15:52:18.754Z,50.76
2018-01-04T15:54:44.725Z,51.20
2018-01-04T15:57:10.688Z,50.83
2018-01-04T15:59:36.654Z,50.61
2018-01-04T16:02:02.611Z,50.48
2018-01-04T16:04:28.549Z,50.34
2018-01-04T16:06:54.614Z,50.35
2018-01-04T16:09:20.621Z,50.24
2018-01-04T16:11:46.665Z,50.28
2018-01-04T16:14:12.614Z,50.27
2018-01-04T16:16:38.578Z,50.38
2018-01-04T16:19:04.546Z,50.40
2018-01-04T16:21:30.519Z,50.54
2018-01-04T16:23:56.485Z,50.58
2018-01-04T16:26:22.441Z,50.47
2018-01-04T16:28:48.437Z,50.73
2018-01-04T16:31:14.395Z,50.59
2018-01-04T16:33:40.362Z,50.48
2018-01-04T16:36:06.371Z,50.78
2018-01-04T16:38:32.294Z,51.37
2018-01-04T16:40:58.248Z,50.63
2018-01-04T16:43:24.218Z,50.54
2018-01-04T16:45:50.182Z,50.30
2018-01-04T16:48:16.149Z,50.50
2018-01-04T16:50:42.109Z,50.46
2018-01-04T16:53:08.145Z,50.42
2018-01-04T16:55:34.202Z,50.10
2018-01-04T16:58:00.217Z,50.21
2018-01-04T17:00:26.200Z,50.20
2018-01-04T17:02:52.110Z,50.33
2018-01-04T17:05:18.069Z,50.23
2018-01-04T17:07:44.035Z,50.35
2018-01-04T17:10:10.020Z,50.50
2018-01-04T17:12:36.050Z,50.31
2018-01-04T17:15:02.019Z,50.60
2018-01-04T17:17:27.989Z,50.50
2018-01-04T17:19:54.060Z,50.45
2018-01-04T17:22:20.059Z,50.31
2018-01-04T17:24:45.998Z,50.18
2018-01-04T17:27:11.945Z,50.51
2018-01-04T17:29:37.930Z,50.43
2018-01-04T17:32:03.889Z,50.22
2018-01-04T17:34:29.860Z,50.13
2018-01-04T17:36:55.806Z,50.01
2018-01-04T17:39:21.757Z,50.21
2018-01-04T17:41:47.695Z,50.08
2018-01-04T17:44:13.644Z,50.04
2018-01-04T17:46:39.629Z,49.93
2018-01-04T17:49:05.577Z,50.02
2018-01-04T17:51:31.553Z,50.06
2018-01-04T17:53:57.504Z,50.11
2018-01-04T17:56:23.459Z,50.44
2018-01-04T17:58:49.466Z,49.97
2018-01-04T18:01:15.410Z,50.01
2018-01-04T18:03:41.375Z,50.67
2018-01-04T18:06:07.668Z,50.15
2018-01-04T18:08:33.603Z,50.15
2018-01-04T18:10:59.550Z,49.90
2018-01-04T18:13:25.503Z,49.87
2018-01-04T18:15:51.465Z,50.14
2018-01-04T18:18:17.425Z,50.06
2018-01-04T18:20:43.369Z,50.22
2018-01-04T18:23:09.321Z,50.05
2018-01-04T18:25:35.277Z,49.76
2018-01-04T18:28:01.230Z,49.76
2018-01-04T18:30:27.184Z,49.46
2018-01-04T18:32:53.131Z,50.36
2018-01-04T18:35:19.074Z,49.58
2018-01-04T18:37:45.022Z,50.42
2018-01-04T18:40:10.969Z,48.79
2018-01-04T18:42:36.957Z,49.19
2018-01-04T18:45:03.004Z,49.21
2018-01-04T18:47:28.953Z,49.39
2018-01-04T18:49:54.910Z,49.28
2018-01-04T18:52:20.845Z,49.18
2018-01-04T18:54:46.926Z,49.14
2018-01-04T18:57:12.897Z,49.72
2018-01-04T18:59:38.814Z,48.93
2018-01-04T19:02:04.785Z,49.54
2018-01-04T19:04:30.741Z,49.26
2018-01-04T19:06:56.741Z,49.50
2018-01-04T19:09:22.630Z,49.26
2018-01-04T19:11:48.590Z,49.44
2018-01-04T19:14:14.548Z,49.19
2018-01-04T19:16:40.626Z,50.02
2018-01-04T19:19:06.832Z,49.52
2018-01-04T19:21:32.790Z,49.39
2018-01-04T19:23:58.774Z,49.46
2018-01-04T19:26:24.748Z,49.47
2018-01-04T19:28:50.670Z,49.58
2018-01-04T19:31:16.633Z,49.40
2018-01-04T19:33:42.761Z,49.59
2018-01-04T19:36:08.732Z,49.50
2018-01-04T19:38:34.730Z,49.91
2018-01-04T19:41:00.699Z,49.82
2018-01-04T19:43:26.675Z,49.45
2018-01-04T19:45:52.629Z,49.42
2018-01-04T19:48:18.566Z,49.59
2018-01-04T19:50:44.538Z,49.66
2018-01-04T19:53:10.487Z,49.69
2018-01-04T19:55:36.441Z,49.62
2018-01-04T19:58:02.389Z,49.65
2018-01-04T20:00:28.349Z,49.46
2018-01-04T20:02:54.289Z,49.59
2018-01-04T20:05:20.379Z,49.47
2018-01-04T20:07:46.327Z,49.25
2018-01-04T20:10:12.271Z,49.10
2018-01-04T20:12:38.217Z,48.99
2018-01-04T20:15:04.174Z,48.97
2018-01-04T20:17:30.169Z,49.39
2018-01-04T20:19:56.131Z,49.08
2018-01-04T20:22:22.088Z,49.40
2018-01-04T20:24:48.198Z,49.00
2018-01-04T20:27:14.158Z,49.15
2018-01-04T20:29:40.109Z,48.99
2018-01-04T20:32:06.084Z,48.98
2018-01-04T20:34:32.056Z,49.08
2018-01-04T20:36:58.082Z,49.28
2018-01-04T20:39:24.120Z,48.96
2018-01-04T20:41:50.181Z,48.71
2018-01-04T20:44:16.148Z,49.14
2018-01-04T20:46:42.228Z,48.98
2018-01-04T20:49:08.222Z,49.20
2018-01-04T20:51:34.267Z,48.89
2018-01-04T20:54:00.298Z,48.82
2018-01-04T20:56:26.329Z,48.36
2018-01-04T20:58:52.277Z,48.35
2018-01-04T21:01:18.337Z,48.60
2018-01-04T21:03:44.241Z,48.54
2018-01-04T21:06:10.193Z,48.68
2018-01-04T21:08:36.237Z,48.65
2018-01-04T21:11:02.282Z,48.53
2018-01-04T21:13:28.303Z,48.65
2018-01-04T21:15:54.353Z,48.52
2018-01-04T21:18:20.441Z,49.05
2018-01-04T21:20:46.503Z,48.57
2018-01-04T21:23:12.465Z,48.79
2018-01-04T21:25:38.423Z,48.75
2018-01-04T21:28:04.397Z,48.76
2018-01-04T21:30:30.373Z,48.44
2018-01-04T21:32:56.343Z,48.49
2018-01-04T21:35:22.291Z,48.51
2018-01-04T21:37:48.276Z,48.72
2018-01-04T21:40:14.225Z,48.40
2018-01-04T21:42:40.163Z,48.42
2018-01-04T21:45:06.122Z,48.32
2018-01-04T21:47:32.083Z,48.23
2018-01-04T21:49:58.140Z,48.38
2018-01-04T21:52:24.085Z,48.30
2018-01-04T21:54:50.046Z,48.43
2018-01-04T21:57:15.986Z,48.42
2018-01-04T21:59:42.030Z,48.53
2018-01-04T22:02:07.972Z,48.65
2018-01-04T22:04:33.947Z,49.11
2018-01-04T22:06:59.954Z,49.24
2018-01-04T22:09:25.953Z,49.49
2018-01-04T22:11:51.966Z,49.61
2018-01-04T22:14:17.953Z,49.96
2018-01-04T22:16:44.243Z,48.85
2018-01-04T22:19:15.290Z,49.71
2018-01-04T22:21:42.612Z,49.63
2018-01-04T22:24:10.437Z,49.76
2018-01-04T22:26:36.418Z,49.82
2018-01-04T22:29:02.412Z,49.39
2018-01-04T22:31:28.798Z,49.75
2018-01-04T22:33:54.889Z,49.65
2018-01-04T22:36:20.869Z,49.70
2018-01-04T22:38:46.893Z,49.68
2018-01-04T22:41:12.910Z,49.75
2018-01-04T22:43:38.852Z,49.56
2018-01-04T22:46:04.890Z,49.16
2018-01-04T22:48:30.859Z,49.34
2018-01-04T22:50:56.884Z,49.31
2018-01-04T22:53:23.972Z,49.59
2018-01-04T22:55:50.302Z,50.04
2018-01-04T22:58:16.282Z,50.24
2018-01-04T23:00:42.740Z,50.23
2018-01-04T23:03:08.741Z,49.82
2018-01-04T23:05:34.729Z,49.86
2018-01-04T23:08:05.183Z,50.10
2018-01-04T23:10:31.172Z,50.17
2018-01-04T23:12:57.200Z,50.21
2018-01-04T23:15:23.219Z,50.43
2018-01-04T23:17:49.172Z,49.54
2018-01-04T23:20:15.162Z,49.35
2018-01-04T23:22:41.127Z,49.80
2018-01-04T23:25:07.130Z,49.58
2018-01-04T23:27:36.251Z,50.00
2018-01-04T23:30:02.246Z,49.38
2018-01-04T23:32:28.231Z,49.26
2018-01-04T23:34:54.253Z,50.42
2018-01-04T23:37:20.227Z,49.04
2018-01-04T23:39:46.227Z,48.84
2018-01-04T23:42:12.295Z,49.54
2018-01-04T23:44:38.269Z,49.58
2018-01-04T23:47:04.241Z,49.07
2018-01-04T23:49:30.259Z,50.02
2018-01-04T23:51:56.249Z,49.73
2018-01-04T23:54:22.219Z,50.46
2018-01-04T23:56:48.213Z,50.62
2018-01-04T23:59:14.240Z,50.21
